Amana, Iowa
Current Conditions -  °F | °C
As of 1:52 PM on Friday 24 Oct 2014 (Local Time) from KCID Reporting Station
Overcast Overcast  
Wind Chill: 14°   Ceiling: 600
Heat Index: 14°   Visibility: 7mi
Dew Point: 14°   Wind: 13mph
Humidity: 97%   Direction: 160°SSE
Pressure: 29.93"   Gusts: NA
Location:  41.8°N, 91.87°W
Report Text: KCID 241852Z 16011KT 7SM OVC006 14/14 A2993 RMK AO2 CIG 004V010 SLP138 T01440139
Loading
Personal Weather Stations






























Interactive Weather Map
Tropical Storm Tracking
New forecast layout! Learn more

10-Day Weather Forecast

Advertisements
Track Severe Weather on mobile